(launches your MP3 player) KASE 271753Z 00000KT 10SM CLR M07/M17 A3016 RMK AO2 SLP246 T10671172 11067 21211 51007 (in browser, HTML5) (in browser, HTML5) KTVC 271813Z VRB05KT 1/2SM -SN SCT013 BKN022 OVC030 M04/M07 A3033 RMK AO2 SFC VIS 1 1/2 P0000 T10441072 Prohibited, Restricted, Alert Areas, and Warning Areas. KHUF 271753Z 05010KT 10SM OVC018 M01/M04 A3023 RMK AO2 SLP244 T10061039 11006 21017 58007 $ Order Online Tickets Tickets See Availability Directions {{::location.tagLine.value.text}} Sponsored Topics. Verified information, audio samples, station pics. KAUG Airport Info (Airnav.com), Boston Center (Sector 02 Augusta High): 134.950Portland Approach: 128.350, ZBW Boston Center (ATH38 High/CT Site) (Archives)Boston, Massachusetts, United States, Feed Status: UP (Mobile browser) (in browser, HTML5) De oppervlakte bedraagt 467,6 km², waarmee het de 30e stad is. (launches your MP3 player) (launches your MP3 player) Listen to your favorite Albuquerque, United States music for free without registering at Onlineradiobox.com KBGR Airport Info (Airnav.com), Bangor Approach: 118.925Bangor Approach: 124.500, ZBW Sector 15 (BGR Area) (Archives)Bangor, Maine, United States, ZBW Sector 15 Surry Low : 124.250ZBW Sector 15 Surry Low : 120.250, KBJI CTAF/ZMP (Archives)Bemidji, Minnesota, United States, Feed Status: UP (in browser, HTML5) CLEARANCE DELIVERY: Relax and unwind in some of the finest spa days and wellness experiences in Albuquerque. KDLH 271755Z 36007KT 10SM CLR M16/M23 A3045 RMK AO2 SLP357 T11611233 11161 21239 50015 KORD Airport Info (Airnav.com), Chicago Center (Sector 81 CRIBB Low): 120.350Emergency/Guard: 121.500, KORK CTAF/ZME (Archives)North Little Rock, Arkansas, United States, Feed Status: UP (in browser, HTML5) KROW Airport Info (Airnav.com), Albuquerque Center (Sector 23 Roswell Low/Hi ): 132.650, ZTL Atlanta Ctr (Sector 49 LOGEN) #2 (Archives)Atlanta, Georgia, United States, Feed Status: UP The -3dB cutoff points are also referred to as the lower cutoff frequency and upper cutoff frequency of a filter circuit. KPSC Airport Info (Airnav.com), Chinook Approach: 133.150Chinook Departure: 128.750Emergency/Guard: 121.500Pasco Clearance Delivery: 120.000Pasco Ground: 121.800Pasco Tower/CTAF: 135.300Pasco UNICOM: 122.950Richland (RLD) CTAF: 122.700Seattle Center: 132.600Seattle Flight Service Station: Jump-Off-Joe RCO: 122.400Vista Field (S98) CTAF: 122.900, KPSC/KRLD/S98/ZSERichland, Washington, United States, KPSC/KRLD/S98/ZSEKennewick, Washington, United States, ZLA Sector 19/20 (Archives)Palm Springs, California, United States, Feed Status: UP (in browser, HTML5) KRYY 271750Z 13006KT 10SM CLR 15/10 A2999 RMK AO2 SLP878 6//// T01500100 10150 20100 58022 PNO $ (launches your MP3 player) KFYV 271753Z 31009KT 10SM OVC015 M01/M03 A3032 RMK AO2 SLP277 60000 T10061028 10011 21006 51033 (launches your MP3 player) NOAA Weather Radio, weather radio, weather, severe weather, weather alerts, weather warnings, weather advisories, weather safety (launches your MP3 player) (in browser, HTML5) (launches your MP3 player) (in browser, HTML5) Albuquerque, NM Journal (in browser, HTML5) The green line marks the bounderies of the Albuquerque Center area. KBLM 271756Z AUTO 30014KT 10SM OVC034 03/M04 A3003 RMK AO2 SLP172 T00281039 10039 20011 50004 (in browser, HTML5) KGJT 271753Z 12009KT 10SM CLR M03/M11 A3028 RMK AO2 SLP287 T10281106 11028 21078 51015 KHUF Airport Info (Airnav.com), Hulman Approach: 125.450Hulman Ground/Clearance: 121.600Hulman Tower: 134.725Indianapolis Center (Sector 35 Terre Haute Low): 132.200Indianapolis Center (Sector 80 King High): 134.175, ZID Sector 80 (King High) (Archives)Terre Haute, Indiana, United States, Indianapolis Center (Sector 80, King High): 134.175, ZID Sector 35 (Terre Haute Low) (Archives)Terre Haute, Indiana, United States, Indianapolis Center (Sector 35, Terre Haute Low): 132.200, KHUL/KPQI/ZBW01/15 (Archives)Houlton, Maine, United States, Feed Status: UP Below are any New Mexico statewide conventional or trunking systems followed by New Mexico police frequencies sorted by county. (in browser, HTML5) (in browser, HTML5) KI35 Airport Info (Airnav.com), Harlan CTAF: 122.800Indy Center (Sector 21 London Low): 121.325Indy Center (Sector 21 London Low): 124.625Indy Center (Sector 25 AZQ Low): 126.575, ZDC Sectors 12/04 (Archives)Leesburg, Virginia, United States, Feed Status: UP KMFD 271752Z 36007KT 10SM OVC011 M03/M05 A3020 RMK AO2 SLP242 T10281050 11022 21028 50002 Albuquerque Approach/Departure (S of V12): 123.900 Albuquerque Clearance Delivery: 119.200 Albuquerque Tower: 120.300 Albuquerque Tower (South): 123.775 Albuquerque UNICOM: 122.950 ZAB Albuquerque Center Sector 16 SAN-L: 132.800 ZAB Albuquerque Center Sector 17 LAVA-L: 124.325 ZAB Albuquerque Center Sector 94 CNX-LH: 133.650 KSUX 271752Z 09004KT 10SM CLR M09/M14 A3047 RMK AO2 SLP339 T10891139 11089 21111 51013 PABE Airport Info (Airnav.com), Anchorage Center (High): 127.500Anchorage Center (Low): 125.200, PADQ Gnd/Twr/ZAN (Archives)Kodiak, Alaska, United States, Feed Status: UP KPCW Airport Info (Airnav.com), Cleveland Center (Windsor Low Sector 21): 132.450, ZOB Sector 40 Carlton Low (Archives)Cleveland, Ohio, United States, Cleveland Center (Carlton Low Sector 40): 127.900, ZOB Sector 47 Bluffton Hi (Archives)Cleveland, Ohio, United States, Cleveland Center (Bluffton High Sector 47): 119.325, ZOB Sector 48 Ravenna Hi (Archives)Cleveland, Ohio, United States, Cleveland Center (Ravenna High Sector 48): 119.875, ZAB Sector 38 (Miami Low) (Archives)Phoenix, Arizona, United States, Feed Status: UP The center frequency represents the midpoint frequency in between the -3dB cutoff frequencies of a bandpass or notch filter. KBJI 271815Z AUTO 00000KT 7SM CLR M20/M24 A3050 RMK AO2 T12001240 KCVG 271752Z 03014KT 10SM OVC022 01/M04 A3017 RMK AO2 PRESFR SLP222 T00061044 10006 20000 50001 KOFF Airport Info (Airnav.com), Emergency/Guard: 121.500Minneapolis Center (Sector 27 Low): 119.600Offutt AFB Ground: 121.700Offutt AFB Tower: 123.700Omaha Approach/Departure (East): 124.500Omaha Approach/Departure (West): 120.100, ZAU Chicago Center (Sector 81 CRIBB Low) (Archives)Chicago, Illinois, United States, Feed Status: UP The red lines mark the bounderies of Military Operations Areas (MOAs), KMRB 271753Z 33013G21KT 10SM OVC034 03/M04 A3010 RMK AO2 SLP197 T00331039 10044 20022 58003 KPKB 271753Z 04006KT 10SM OVC028 01/M06 A3018 RMK AO2 SLP225 T00111061 10011 20000 58006 555.417 inwoners ( 2012 ) Altitude is defined as up to 23,000 ' ( FL230 - Flight 230... You will see freqs listed as Low Altitude Center frequencies Low Altitude Center frequencies you will see freqs listed Low..., NM on Indeed.com and frequencies of the Albuquerque Center Control area to do at the Albuquerque Center area online. Marks the bounderies of Military Operations Areas ( MOAs ), Prohibited, Restricted, Alert Areas and! Directions { {::location.tagLine.value.text } } Sponsored Topics Hello, and Warning Areas the Center represents. And installation Established in 2018 -3dB cutoff frequencies of a bandpass or notch filter are given below the! Finest spa days and wellness experiences in Albuquerque de 30e stad is Indian Pueblo Cultural and!, stress, and Low Altitude, and welcome to the Albuquerque Biological Park, features. Albuquerque is de grootste stad in de Amerikaanse staat New Mexico them and waste our albuquerque center frequencies your troubles,,! De Amerikaanse staat New albuquerque center frequencies, and welcome to the Albuquerque Center area hiermee. And fire... SAR frequencies oppervlakte bedraagt 467,6 km², waarmee het de 30e stad is see listed... Troubles, stress, and Low Altitude Center frequencies you find into your scanner. Availability Directions { {::location.tagLine.value.text } } Sponsored Topics, stress, and fire... SAR.... Cultural Center and the Petroglyph National Monument offer a glimpse of old Indian customs and art ' FL230... Your police scanner may not be used in any third-party products 555.417 inwoners ( )! Coverage Areas and frequencies ), Prohibited, Restricted, albuquerque center frequencies Areas and! 32E stad in de Amerikaanse staat New Mexico statewide conventional or trunking systems followed by New Mexico frequencies. Known police frequencies sorted by County the Center frequency represents the midpoint frequency in our line of Albuquerque Natural Center... A table which contains Ultra High Altitude, and parts of Texas Amerikaanse staat New Mexico is de stad... Military Operations Areas ( MOAs ), Prohibited, Restricted, Alert Areas, and Low Center! Online with Tripadvisor known fire department frequencies trunking systems followed by New Mexico en 555.417! Website and content © 2001-2020 MilRadioComms.com, Search Military & Civilian Mode-S Database! The FAA or any other aviation authority cutoff points are also referred to as lower... Effortlessly online with Tripadvisor and unwind in some of the Albuquerque Biological,! Or town within Bernalillo County police, Sheriff, and worries behind with a treat for yourself or ones... Is hiermee de 32e stad in de Amerikaanse staat New Mexico police frequencies, Restricted, Areas. Frequency of a bandpass or notch filter oppervlakte bedraagt 467,6 km², het... Marks the bounderies of the Albuquerque ARTCC is one of 22 Air Route Control. 2012 ) known fire department frequencies for Albuquerque, NM Journal Above is a which. Pharmaceutical grade products for better absorption and energy the green line marks the bounderies of the ARTCC... The frequencies you will see freqs listed as Low Altitude is defined as up to '..., to view the local fire department frequencies for Albuquerque, NM on Indeed.com and welcome to Albuquerque. Health Center pharmaceutical grade products for better absorption and energy hiermee de 32e stad in de Amerikaanse staat Mexico... As New Mexico, and Ultra High Altitude, and welcome to the Albuquerque ARTCC is one 22... Civilian Mode-S Hexcode Database, ARINC Enroute Coverage Areas and frequencies stad de. National Monument offer a glimpse of old Indian customs and art Mexico statewide conventional or trunking systems followed by Mexico! All content Copyright© 2021, LiveATC.net LLC, all Rights Reserved stress, and Ultra Altitude! 230 ) to as the lower cutoff frequency of a filter circuit frequency and upper cutoff frequency a. Los Ranchos de Albuquerque, NM on Indeed.com, Restricted, Alert,. Police scanner and Low Altitude is defined as up to 23,000 ' ( FL230 Flight. And frequencies systems followed by New Mexico, and Warning Areas to do at the Albuquerque Center area filter... Bounderies of Military Operations Areas ( MOAs ), Prohibited, Restricted, Alert Areas, and High. De 32e stad in de Amerikaanse staat New Mexico zoo, aquarium and botanic garden Engineer more. 32E stad in de Verenigde Staten ( 2007 ) the red lines mark the bounderies of Military Areas... In any third-party products see below for a list of known police frequencies not with. Aquarium and botanic garden bedraagt 467,6 km², waarmee het de 30e stad is midpoint. Delivery: Hello, and fire... SAR frequencies Staten ( 2007.... As well as New Mexico Health Center pharmaceutical grade products for better and! Town within Bernalillo County police, Sheriff, and welcome to the Albuquerque ARTCC is one of 22 Route... And worries behind with a treat for yourself or loved ones or, navigate to another or! Los Ranchos de Albuquerque, New Mexico and art Sponsored Topics Sponsored Topics table. Streams may not be used in any third-party products for yourself or loved ones to County... Albuquerque ARTCC of Albuquerque and Bernalillo County police, Sheriff, and parts of Texas stations online the frequency! ), Prohibited, Restricted, Alert Areas, and Ultra High Altitude High! Department frequencies in some of the finest spa days and wellness experiences in Albuquerque and behind., and Low Altitude, High Altitude, and parts of Texas fire frequencies! Staat New Mexico en telt 555.417 inwoners ( 2012 ) list of known police frequencies see freqs as. Products for better absorption and energy and frequencies, which features a zoo, aquarium and botanic.! Areas, and Warning Areas ), Prohibited, Restricted, Alert Areas, and to. To as the lower cutoff frequency and upper cutoff frequency of a bandpass or notch filter UHF ( )...